createdAt,value
2018-05-16T00:01:08.867Z,95.48
2018-05-16T00:03:35.152Z,95.90
2018-05-16T00:06:01.439Z,96.17
2018-05-16T00:08:27.724Z,96.09
2018-05-16T00:10:54.012Z,95.68
2018-05-16T00:13:20.294Z,95.10
2018-05-16T00:15:46.592Z,94.24
2018-05-16T00:18:12.881Z,93.00
2018-05-16T00:20:39.197Z,94.43
2018-05-16T00:23:05.487Z,94.50
2018-05-16T00:25:31.832Z,94.82
2018-05-16T00:27:58.121Z,95.12
2018-05-16T00:30:24.449Z,95.18
2018-05-16T00:32:50.740Z,94.43
2018-05-16T00:35:17.076Z,90.66
2018-05-16T00:37:43.364Z,90.65
2018-05-16T00:40:09.652Z,91.16
2018-05-16T00:42:35.944Z,89.72
2018-05-16T00:45:02.236Z,90.08
2018-05-16T00:47:28.535Z,87.56
2018-05-16T00:49:54.819Z,87.82
2018-05-16T00:52:21.107Z,87.80
2018-05-16T00:54:47.397Z,87.79
2018-05-16T00:57:13.729Z,88.52
2018-05-16T00:59:40.025Z,89.30
2018-05-16T01:02:06.313Z,90.08
2018-05-16T01:04:32.617Z,90.45
2018-05-16T01:06:58.953Z,90.03
2018-05-16T01:09:25.236Z,88.27
2018-05-16T01:11:51.568Z,88.09
2018-05-16T01:14:17.857Z,87.45
2018-05-16T01:16:44.191Z,87.91
2018-05-16T01:19:10.520Z,87.38
2018-05-16T01:21:36.807Z,86.38
2018-05-16T01:24:03.148Z,86.12
2018-05-16T01:26:29.446Z,85.99
2018-05-16T01:28:55.734Z,85.47
2018-05-16T01:31:22.029Z,84.89
2018-05-16T01:33:48.339Z,84.66
2018-05-16T01:36:14.619Z,84.70
2018-05-16T01:38:40.914Z,85.45
2018-05-16T01:41:07.211Z,85.54
2018-05-16T01:43:33.508Z,85.97
2018-05-16T01:45:59.792Z,86.42
2018-05-16T01:48:26.133Z,85.99
2018-05-16T01:50:52.437Z,86.09
2018-05-16T01:53:18.707Z,86.57
2018-05-16T01:55:44.999Z,87.14
2018-05-16T01:58:11.327Z,87.37
2018-05-16T02:00:37.616Z,87.62
2018-05-16T02:03:03.915Z,88.01
2018-05-16T02:05:30.199Z,87.92
2018-05-16T02:07:56.531Z,88.05
2018-05-16T02:10:23.015Z,87.84
2018-05-16T02:12:49.299Z,87.88
2018-05-16T02:15:15.590Z,88.19
2018-05-16T02:17:41.880Z,88.40
2018-05-16T02:20:08.176Z,88.49
2018-05-16T02:22:34.473Z,88.29
2018-05-16T02:25:00.762Z,88.07
2018-05-16T02:27:27.058Z,88.25
2018-05-16T02:29:53.350Z,88.11
2018-05-16T02:32:19.650Z,88.16
2018-05-16T02:34:45.936Z,87.83
2018-05-16T02:37:12.225Z,87.54
2018-05-16T02:39:38.518Z,87.66
2018-05-16T02:42:04.817Z,87.61
2018-05-16T02:44:31.113Z,87.57
2018-05-16T02:46:57.442Z,87.81
2018-05-16T02:49:23.737Z,87.89
2018-05-16T02:51:50.031Z,87.42
2018-05-16T02:54:16.336Z,87.26
2018-05-16T02:56:42.627Z,86.47
2018-05-16T02:59:08.922Z,86.50
2018-05-16T03:01:35.219Z,85.51
2018-05-16T03:04:01.515Z,85.04
2018-05-16T03:06:27.817Z,84.63
2018-05-16T03:08:54.105Z,83.77
2018-05-16T03:11:20.396Z,83.44
2018-05-16T03:13:46.685Z,83.07
2018-05-16T03:16:12.973Z,81.92
2018-05-16T03:18:39.272Z,82.13
2018-05-16T03:21:05.643Z,82.41
2018-05-16T03:23:31.930Z,82.24
2018-05-16T03:25:58.215Z,82.03
2018-05-16T03:28:24.550Z,82.20
2018-05-16T03:30:50.842Z,81.84
2018-05-16T03:33:17.141Z,81.64
2018-05-16T03:35:43.433Z,81.85
2018-05-16T03:38:09.720Z,82.11
2018-05-16T03:40:36.016Z,82.05
2018-05-16T03:43:02.305Z,81.92
2018-05-16T03:45:28.633Z,82.31
2018-05-16T03:47:54.929Z,82.79
2018-05-16T03:50:21.219Z,83.18
2018-05-16T03:52:47.511Z,83.16
2018-05-16T03:55:13.798Z,83.46
2018-05-16T03:57:40.080Z,82.82
2018-05-16T04:00:06.412Z,82.74
2018-05-16T04:02:32.707Z,81.87
2018-05-16T04:04:58.996Z,81.70
2018-05-16T04:07:25.326Z,81.58
2018-05-16T04:09:51.619Z,81.68
2018-05-16T04:12:17.906Z,81.06
2018-05-16T04:14:44.202Z,79.98
2018-05-16T04:17:10.538Z,79.54
2018-05-16T04:19:36.833Z,78.37
2018-05-16T04:22:03.123Z,78.15
2018-05-16T04:24:29.417Z,77.39
2018-05-16T04:26:55.752Z,77.72
2018-05-16T04:29:22.066Z,76.82
2018-05-16T04:31:48.357Z,76.65
2018-05-16T04:34:14.652Z,76.85
2018-05-16T04:36:40.950Z,76.48
2018-05-16T04:39:07.233Z,75.66
2018-05-16T04:41:33.520Z,74.77
2018-05-16T04:43:59.848Z,76.43
2018-05-16T04:46:26.136Z,74.99
2018-05-16T04:48:52.425Z,76.26
2018-05-16T04:51:18.752Z,75.29
2018-05-16T04:53:45.075Z,71.11
2018-05-16T04:56:11.370Z,70.69
2018-05-16T04:58:37.685Z,71.44
2018-05-16T05:01:04.051Z,68.94
2018-05-16T05:03:30.312Z,67.69
2018-05-16T05:05:56.605Z,69.05
2018-05-16T05:08:22.894Z,66.30
2018-05-16T05:10:49.234Z,67.69
2018-05-16T05:13:15.523Z,69.30
2018-05-16T05:15:41.822Z,62.65
2018-05-16T05:18:08.123Z,69.41
2018-05-16T05:20:34.409Z,61.30
2018-05-16T05:23:00.741Z,63.13
2018-05-16T05:25:27.075Z,63.72
2018-05-16T05:27:53.361Z,68.30
2018-05-16T05:30:19.702Z,62.97
2018-05-16T05:32:45.983Z,54.79
2018-05-16T05:35:12.293Z,58.41
2018-05-16T05:37:38.589Z,60.01
2018-05-16T05:40:04.893Z,62.18
2018-05-16T05:42:31.169Z,63.43
2018-05-16T05:44:57.466Z,60.00
2018-05-16T05:47:23.751Z,59.37
2018-05-16T05:49:50.086Z,64.36
2018-05-16T05:52:16.431Z,66.29
2018-05-16T05:54:42.723Z,67.08
2018-05-16T05:57:09.019Z,67.54
2018-05-16T05:59:35.307Z,67.56
2018-05-16T06:02:01.605Z,67.47
2018-05-16T06:04:27.897Z,67.97
2018-05-16T06:06:54.199Z,66.33
2018-05-16T06:09:20.527Z,66.12
2018-05-16T06:11:46.816Z,65.02
2018-05-16T06:14:13.108Z,65.12
2018-05-16T06:16:39.404Z,65.87
2018-05-16T06:19:05.706Z,63.51
2018-05-16T06:21:31.995Z,56.10
2018-05-16T06:23:58.287Z,50.39
2018-05-16T06:26:24.594Z,56.94
2018-05-16T06:28:50.924Z,57.13
2018-05-16T06:31:17.216Z,58.29
2018-05-16T06:33:43.510Z,60.44
2018-05-16T06:36:09.801Z,58.58
2018-05-16T06:38:36.090Z,55.55
2018-05-16T06:41:02.381Z,55.12
2018-05-16T06:43:28.678Z,58.42
2018-05-16T06:45:54.978Z,54.05
2018-05-16T06:48:21.258Z,48.70
2018-05-16T06:50:47.552Z,47.50
2018-05-16T06:53:13.840Z,46.25
2018-05-16T06:55:40.129Z,46.73
2018-05-16T06:58:06.425Z,46.51
2018-05-16T07:00:32.782Z,46.92
2018-05-16T07:02:59.120Z,45.62
2018-05-16T07:05:25.413Z,46.28
2018-05-16T07:07:51.715Z,46.47
2018-05-16T07:10:18.013Z,45.30
2018-05-16T07:12:44.307Z,43.99
2018-05-16T07:15:10.608Z,44.05
2018-05-16T07:17:36.903Z,47.64
2018-05-16T07:20:03.203Z,49.06
2018-05-16T07:22:29.502Z,51.02
2018-05-16T07:24:55.790Z,48.20
2018-05-16T07:27:22.087Z,45.17
2018-05-16T07:29:48.382Z,48.20
2018-05-16T07:32:14.696Z,50.12
2018-05-16T07:34:40.981Z,51.94
2018-05-16T07:37:07.267Z,53.44
2018-05-16T07:39:33.563Z,52.55
2018-05-16T07:41:59.865Z,53.20
2018-05-16T07:44:26.178Z,53.86
2018-05-16T07:46:52.478Z,49.32
2018-05-16T07:49:18.768Z,47.73
2018-05-16T07:51:45.111Z,45.84
2018-05-16T07:54:11.409Z,48.14
2018-05-16T07:56:37.715Z,50.39
2018-05-16T07:59:04.016Z,47.78
2018-05-16T08:01:30.358Z,46.29
2018-05-16T08:03:56.647Z,49.53
2018-05-16T08:06:22.944Z,45.30
2018-05-16T08:08:49.235Z,46.88
2018-05-16T08:11:15.567Z,50.66
2018-05-16T08:13:41.856Z,51.82
2018-05-16T08:16:08.195Z,49.99
2018-05-16T08:18:34.487Z,46.53
2018-05-16T08:21:00.802Z,44.34
2018-05-16T08:23:27.096Z,42.24
2018-05-16T08:25:53.379Z,41.92
2018-05-16T08:28:19.710Z,41.11
2018-05-16T08:30:46.001Z,41.02
2018-05-16T08:33:12.329Z,40.64
2018-05-16T08:35:38.626Z,39.80
2018-05-16T08:38:04.917Z,41.78
2018-05-16T08:40:31.233Z,43.34
2018-05-16T08:42:57.564Z,42.09
2018-05-16T08:45:23.824Z,40.70
2018-05-16T08:47:50.123Z,40.08
2018-05-16T08:50:16.448Z,41.29
2018-05-16T08:52:42.776Z,43.27
2018-05-16T08:55:09.074Z,42.53
2018-05-16T08:57:35.363Z,40.07
2018-05-16T09:00:01.658Z,39.65
2018-05-16T09:02:27.943Z,39.22
2018-05-16T09:04:54.240Z,40.13
2018-05-16T09:07:20.528Z,36.81
2018-05-16T09:09:46.868Z,40.85
2018-05-16T09:12:13.157Z,41.04
2018-05-16T09:14:39.457Z,38.76
2018-05-16T09:17:05.754Z,37.59
2018-05-16T09:19:32.048Z,37.86
2018-05-16T09:21:58.355Z,35.18
2018-05-16T09:24:24.686Z,36.01
2018-05-16T09:26:50.979Z,37.27
2018-05-16T09:29:17.278Z,36.15
2018-05-16T09:31:43.573Z,30.19
2018-05-16T09:34:09.865Z,31.12
2018-05-16T09:36:36.167Z,30.21
2018-05-16T09:39:02.464Z,29.45
2018-05-16T09:41:28.752Z,27.33
2018-05-16T09:43:55.044Z,29.94
2018-05-16T09:46:21.335Z,28.72
2018-05-16T09:48:47.681Z,27.85
2018-05-16T09:51:13.977Z,27.07
2018-05-16T09:53:40.268Z,27.10
2018-05-16T09:56:06.592Z,28.74
2018-05-16T09:58:32.880Z,27.44
2018-05-16T10:00:59.208Z,27.48
2018-05-16T10:03:25.501Z,29.20
2018-05-16T10:05:51.792Z,30.91
2018-05-16T10:08:18.172Z,30.58
2018-05-16T10:10:44.476Z,30.64
2018-05-16T10:13:10.768Z,29.54
2018-05-16T10:15:37.066Z,30.95
2018-05-16T10:18:03.411Z,32.90
2018-05-16T10:20:29.832Z,31.54
2018-05-16T10:22:56.130Z,30.83
2018-05-16T10:25:22.464Z,30.02
2018-05-16T10:27:48.767Z,28.01
2018-05-16T10:30:15.059Z,29.54
2018-05-16T10:32:43.737Z,30.65
2018-05-16T10:35:07.689Z,31.21
2018-05-16T10:37:33.985Z,31.77
2018-05-16T10:40:00.284Z,30.29
2018-05-16T10:42:26.578Z,30.06
2018-05-16T10:44:52.886Z,27.96
2018-05-16T10:47:19.181Z,27.45
2018-05-16T10:49:45.469Z,25.68
2018-05-16T10:52:11.811Z,25.83
2018-05-16T10:54:38.055Z,25.51
2018-05-16T10:57:04.351Z,25.26
2018-05-16T10:59:30.644Z,24.84
2018-05-16T11:01:56.944Z,25.69
2018-05-16T11:04:23.230Z,23.32
2018-05-16T11:06:49.534Z,25.04
2018-05-16T11:09:15.849Z,24.56
2018-05-16T11:11:42.139Z,24.79
2018-05-16T11:14:08.439Z,24.68
2018-05-16T11:16:34.731Z,23.85
2018-05-16T11:19:01.040Z,24.32
2018-05-16T11:21:27.417Z,24.29
2018-05-16T11:23:53.629Z,22.98
2018-05-16T11:26:19.944Z,23.48
2018-05-16T11:28:46.231Z,23.03
2018-05-16T11:31:12.534Z,22.77
2018-05-16T11:33:38.840Z,22.96
2018-05-16T11:36:05.149Z,23.23
2018-05-16T11:38:31.448Z,24.42
2018-05-16T11:40:57.749Z,24.10
2018-05-16T11:43:24.048Z,24.31
2018-05-16T11:45:50.347Z,23.42
2018-05-16T11:48:16.682Z,23.33
2018-05-16T11:50:43.004Z,23.60
2018-05-16T11:53:09.306Z,24.37
2018-05-16T11:55:35.593Z,24.99
2018-05-16T11:58:01.886Z,23.83
2018-05-16T12:00:28.175Z,24.46
2018-05-16T12:02:54.493Z,25.31
2018-05-16T12:05:20.777Z,26.49
2018-05-16T12:07:47.069Z,26.44
2018-05-16T12:10:13.359Z,26.96
2018-05-16T12:12:39.657Z,27.38
2018-05-16T12:15:05.952Z,26.11
2018-05-16T12:17:32.242Z,27.19
2018-05-16T12:19:58.533Z,27.38
2018-05-16T12:22:24.838Z,26.75
2018-05-16T12:24:51.127Z,27.13
2018-05-16T12:27:17.542Z,27.56
2018-05-16T12:29:43.843Z,26.64
2018-05-16T12:32:10.136Z,26.06
2018-05-16T12:34:36.447Z,27.08
2018-05-16T12:37:02.767Z,27.58
2018-05-16T12:39:29.103Z,27.72
2018-05-16T12:41:55.436Z,26.88
2018-05-16T12:44:21.733Z,26.77
2018-05-16T12:46:48.023Z,24.66
2018-05-16T12:49:14.321Z,25.59
2018-05-16T12:51:40.607Z,24.94
2018-05-16T12:54:06.931Z,24.66
2018-05-16T12:56:33.269Z,23.56
2018-05-16T12:58:59.554Z,24.00
2018-05-16T13:01:25.865Z,23.01
2018-05-16T13:03:52.175Z,21.67
2018-05-16T13:06:18.476Z,22.51
2018-05-16T13:08:44.818Z,21.16
2018-05-16T13:11:11.151Z,20.67
2018-05-16T13:13:37.445Z,21.92
2018-05-16T13:16:03.767Z,22.36
2018-05-16T13:18:30.069Z,23.16
2018-05-16T13:20:56.365Z,22.98
2018-05-16T13:23:22.664Z,21.84
2018-05-16T13:25:48.961Z,23.94
2018-05-16T13:28:15.292Z,25.29
2018-05-16T13:30:41.624Z,26.14
2018-05-16T13:33:07.937Z,26.05
2018-05-16T13:35:34.266Z,25.47
2018-05-16T13:38:00.538Z,25.47
2018-05-16T13:40:26.833Z,25.58
2018-05-16T13:42:53.130Z,26.03
2018-05-16T13:45:19.454Z,25.75
2018-05-16T13:47:45.761Z,26.49
2018-05-16T13:50:12.052Z,27.42
2018-05-16T13:52:38.390Z,26.69
2018-05-16T13:55:04.682Z,26.94
2018-05-16T13:57:30.977Z,27.01
2018-05-16T13:59:57.272Z,27.05
2018-05-16T14:02:23.571Z,27.00
2018-05-16T14:04:49.867Z,27.02
2018-05-16T14:07:16.155Z,26.56
2018-05-16T14:09:42.450Z,27.18
2018-05-16T14:12:08.746Z,26.78
2018-05-16T14:14:35.042Z,27.49
2018-05-16T14:17:01.347Z,27.60
2018-05-16T14:19:27.630Z,27.45
2018-05-16T14:21:53.939Z,28.20
2018-05-16T14:24:20.245Z,28.72
2018-05-16T14:26:46.549Z,28.97
2018-05-16T14:29:12.839Z,29.45
2018-05-16T14:31:39.129Z,29.63
2018-05-16T14:34:05.427Z,28.79
2018-05-16T14:36:31.722Z,29.08
2018-05-16T14:38:58.024Z,28.78
2018-05-16T14:41:24.313Z,28.96
2018-05-16T14:43:50.629Z,29.08
2018-05-16T14:46:16.911Z,29.31
2018-05-16T14:48:43.202Z,29.74
2018-05-16T14:51:09.497Z,29.42
2018-05-16T14:53:35.794Z,29.44
2018-05-16T14:56:02.135Z,29.65
2018-05-16T14:58:28.374Z,28.74
2018-05-16T15:00:54.675Z,28.71
2018-05-16T15:03:20.973Z,28.62
2018-05-16T15:05:47.274Z,28.73
2018-05-16T15:08:13.574Z,28.78
2018-05-16T15:10:39.907Z,28.55
2018-05-16T15:13:06.208Z,28.44
2018-05-16T15:15:32.502Z,28.37
2018-05-16T15:17:58.801Z,27.96
2018-05-16T15:20:25.093Z,28.02
2018-05-16T15:22:51.380Z,27.59
2018-05-16T15:25:17.815Z,27.40
2018-05-16T15:27:44.194Z,27.30
2018-05-16T15:30:10.449Z,27.48
2018-05-16T15:32:36.743Z,27.81
2018-05-16T15:35:03.035Z,28.88
2018-05-16T15:37:29.326Z,28.13
2018-05-16T15:39:55.640Z,27.92
2018-05-16T15:42:21.933Z,26.93
2018-05-16T15:44:48.233Z,27.12
2018-05-16T15:47:14.551Z,27.33
2018-05-16T15:49:40.858Z,27.34
2018-05-16T15:52:07.159Z,28.59
2018-05-16T15:54:33.476Z,29.53
2018-05-16T15:56:59.768Z,29.83
2018-05-16T15:59:26.118Z,28.93
2018-05-16T16:01:52.657Z,28.36
2018-05-16T16:04:19.007Z,27.84
2018-05-16T16:06:45.324Z,27.50
2018-05-16T16:09:11.638Z,27.00
2018-05-16T16:11:37.929Z,27.05
2018-05-16T16:14:04.230Z,26.90
2018-05-16T16:16:30.529Z,26.98
2018-05-16T16:18:56.829Z,27.33
2018-05-16T16:21:23.128Z,27.62
2018-05-16T16:23:49.425Z,27.55
2018-05-16T16:26:15.716Z,27.29
2018-05-16T16:28:42.036Z,27.51
2018-05-16T16:31:08.333Z,27.58
2018-05-16T16:33:34.664Z,27.84
2018-05-16T16:36:00.956Z,28.26
2018-05-16T16:38:27.239Z,27.51
2018-05-16T16:40:53.552Z,27.71
2018-05-16T16:43:19.886Z,27.32
2018-05-16T16:45:46.174Z,27.07
2018-05-16T16:48:12.465Z,27.12
2018-05-16T16:50:38.828Z,27.66
2018-05-16T16:53:05.118Z,27.96
2018-05-16T16:55:31.401Z,27.88
2018-05-16T16:57:57.688Z,28.56
2018-05-16T17:00:23.982Z,29.33
2018-05-16T17:02:50.282Z,29.12
2018-05-16T17:05:16.603Z,28.90
2018-05-16T17:07:42.886Z,28.43
2018-05-16T17:10:09.190Z,28.82
2018-05-16T17:12:35.481Z,29.01
2018-05-16T17:15:01.795Z,29.26
2018-05-16T17:17:28.091Z,29.92
2018-05-16T17:19:54.385Z,31.15
2018-05-16T17:22:20.676Z,31.72
2018-05-16T17:24:46.968Z,32.94
2018-05-16T17:27:13.288Z,34.11
2018-05-16T17:29:39.591Z,33.79
2018-05-16T17:32:05.882Z,34.28
2018-05-16T17:34:32.175Z,33.94
2018-05-16T17:36:58.477Z,34.75
2018-05-16T17:39:24.770Z,35.29
2018-05-16T17:41:51.071Z,35.52
2018-05-16T17:44:17.463Z,35.87
2018-05-16T17:46:43.757Z,36.20
2018-05-16T17:49:10.056Z,36.49
2018-05-16T17:51:36.388Z,36.94
2018-05-16T17:54:02.680Z,40.05
2018-05-16T17:56:28.974Z,41.96
2018-05-16T17:58:55.263Z,43.37
2018-05-16T18:01:21.557Z,44.23
2018-05-16T18:03:47.845Z,45.38
2018-05-16T18:06:14.177Z,46.29
2018-05-16T18:08:40.464Z,47.82
2018-05-16T18:11:06.771Z,49.51
2018-05-16T18:13:33.106Z,49.59
2018-05-16T18:15:59.397Z,50.85
2018-05-16T18:18:25.725Z,51.14
2018-05-16T18:20:52.015Z,51.45
2018-05-16T18:23:18.304Z,51.52
2018-05-16T18:25:44.598Z,52.57
2018-05-16T18:28:10.890Z,53.50
2018-05-16T18:30:37.193Z,54.08
2018-05-16T18:33:03.487Z,54.53
2018-05-16T18:35:29.787Z,57.58
2018-05-16T18:37:56.139Z,61.32
2018-05-16T18:40:22.433Z,64.68
2018-05-16T18:42:48.725Z,67.65
2018-05-16T18:45:15.025Z,69.12
2018-05-16T18:47:41.317Z,67.49
2018-05-16T18:50:07.610Z,67.97
2018-05-16T18:52:33.942Z,66.80
2018-05-16T18:55:00.234Z,66.34
2018-05-16T18:57:26.525Z,69.65
2018-05-16T18:59:52.821Z,68.67
2018-05-16T19:02:19.271Z,68.25
2018-05-16T19:04:45.554Z,64.63
2018-05-16T19:07:11.897Z,64.26
2018-05-16T19:09:38.194Z,66.63
2018-05-16T19:12:04.481Z,69.90
2018-05-16T19:14:30.854Z,70.07
2018-05-16T19:16:57.124Z,69.04
2018-05-16T19:19:23.426Z,67.32
2018-05-16T19:21:49.720Z,66.07
2018-05-16T19:24:16.009Z,65.95
2018-05-16T19:26:42.305Z,66.65
2018-05-16T19:29:08.597Z,68.29
2018-05-16T19:31:35.146Z,68.16
2018-05-16T19:34:01.413Z,68.64
2018-05-16T19:36:27.706Z,68.35
2018-05-16T19:38:53.990Z,67.21
2018-05-16T19:41:20.284Z,67.96
2018-05-16T19:43:46.610Z,67.83
2018-05-16T19:46:12.886Z,68.07
2018-05-16T19:48:39.192Z,68.65
2018-05-16T19:51:05.514Z,68.33
2018-05-16T19:53:32.359Z,68.41
2018-05-16T19:55:58.641Z,68.38
2018-05-16T19:58:26.944Z,69.14
2018-05-16T20:00:54.423Z,69.07
2018-05-16T20:03:20.937Z,69.70
2018-05-16T20:05:47.080Z,70.63
2018-05-16T20:08:13.374Z,70.64
2018-05-16T20:10:39.663Z,70.62
2018-05-16T20:13:05.962Z,70.14
2018-05-16T20:15:32.351Z,70.81
2018-05-16T20:17:58.639Z,70.87
2018-05-16T20:20:25.077Z,70.70
2018-05-16T20:22:51.288Z,71.19
2018-05-16T20:25:17.591Z,71.60
2018-05-16T20:27:43.886Z,71.07
2018-05-16T20:30:10.218Z,70.40
2018-05-16T20:32:36.509Z,71.49
2018-05-16T20:35:02.806Z,71.78
2018-05-16T20:37:29.143Z,71.68
2018-05-16T20:39:55.439Z,71.46
2018-05-16T20:42:21.735Z,71.87
2018-05-16T20:44:48.031Z,70.71
2018-05-16T20:47:14.315Z,70.44
2018-05-16T20:49:40.655Z,71.70
2018-05-16T20:52:06.958Z,70.33
2018-05-16T20:54:33.256Z,71.50
2018-05-16T20:56:59.547Z,70.08
2018-05-16T20:59:25.838Z,70.67
2018-05-16T21:01:52.130Z,70.98
2018-05-16T21:04:18.416Z,71.07
2018-05-16T21:06:44.709Z,71.24
2018-05-16T21:09:10.998Z,70.81
2018-05-16T21:11:37.296Z,70.16
2018-05-16T21:14:03.624Z,71.23
2018-05-16T21:16:29.912Z,70.91
2018-05-16T21:18:56.235Z,71.19
2018-05-16T21:21:22.534Z,72.02
2018-05-16T21:23:48.860Z,72.26
2018-05-16T21:26:15.154Z,71.97
2018-05-16T21:28:41.539Z,71.53
2018-05-16T21:31:07.802Z,70.43
2018-05-16T21:33:34.100Z,70.72
2018-05-16T21:36:00.469Z,68.96
2018-05-16T21:38:26.736Z,69.25
2018-05-16T21:40:53.030Z,68.32
2018-05-16T21:43:19.315Z,68.85
2018-05-16T21:45:45.658Z,68.42
2018-05-16T21:48:11.965Z,68.59
2018-05-16T21:50:38.261Z,69.17
2018-05-16T21:53:04.547Z,69.25
2018-05-16T21:55:30.843Z,69.26
2018-05-16T21:57:59.508Z,69.50
2018-05-16T22:00:23.661Z,69.68
2018-05-16T22:02:49.966Z,70.21
2018-05-16T22:05:16.281Z,71.08
2018-05-16T22:07:42.640Z,69.05
2018-05-16T22:10:08.948Z,66.11
2018-05-16T22:12:35.232Z,65.65
2018-05-16T22:15:01.532Z,68.37
2018-05-16T22:17:27.827Z,71.18
2018-05-16T22:19:54.128Z,71.62
2018-05-16T22:22:20.429Z,71.84
2018-05-16T22:24:46.723Z,72.48
2018-05-16T22:27:13.021Z,70.87
2018-05-16T22:29:39.312Z,70.63
2018-05-16T22:32:05.603Z,70.05
2018-05-16T22:34:31.913Z,70.52
2018-05-16T22:36:58.199Z,70.93
2018-05-16T22:39:24.526Z,71.58
2018-05-16T22:41:50.811Z,71.77
2018-05-16T22:44:17.081Z,71.78
2018-05-16T22:46:43.385Z,71.90
2018-05-16T22:49:09.671Z,72.40
2018-05-16T22:51:35.954Z,72.95
2018-05-16T22:54:02.252Z,73.83
2018-05-16T22:56:28.551Z,74.65
2018-05-16T22:58:54.836Z,76.12
2018-05-16T23:01:21.123Z,77.14
2018-05-16T23:03:47.416Z,76.84
2018-05-16T23:06:13.708Z,76.67
2018-05-16T23:08:39.998Z,76.43
2018-05-16T23:11:06.288Z,76.64
2018-05-16T23:13:32.585Z,76.41
2018-05-16T23:15:58.952Z,76.59
2018-05-16T23:18:25.208Z,76.67
2018-05-16T23:20:51.501Z,75.42
2018-05-16T23:23:17.788Z,75.30
2018-05-16T23:25:44.075Z,75.55
2018-05-16T23:28:10.374Z,74.87
2018-05-16T23:30:36.661Z,74.71
2018-05-16T23:33:02.960Z,76.18
2018-05-16T23:35:29.253Z,76.76
2018-05-16T23:37:55.539Z,76.95
2018-05-16T23:40:21.879Z,77.43
2018-05-16T23:42:48.165Z,78.56
2018-05-16T23:45:14.462Z,79.20
2018-05-16T23:47:40.756Z,79.11
2018-05-16T23:50:07.044Z,79.64
2018-05-16T23:52:33.331Z,79.92
2018-05-16T23:54:59.626Z,80.03
2018-05-16T23:57:25.921Z,80.48
2018-05-16T23:59:52.207Z,79.75
